sensor_id;sensor_type;location;lat;lon;timestamp;pressure;altitude;pressure_sealevel;temperature
24201;BMP280;2801;50.972;7.856;2022-07-29T00:02:26;97580.94;;;16.56
24201;BMP280;2801;50.972;7.856;2022-07-29T00:04:53;97569.94;;;16.46
24201;BMP280;2801;50.972;7.856;2022-07-29T00:07:20;97571.41;;;16.43
24201;BMP280;2801;50.972;7.856;2022-07-29T00:09:47;97575.16;;;16.39
24201;BMP280;2801;50.972;7.856;2022-07-29T00:12:18;97568.16;;;16.38
24201;BMP280;2801;50.972;7.856;2022-07-29T00:14:54;97577.53;;;16.40
24201;BMP280;2801;50.972;7.856;2022-07-29T00:17:25;97573.22;;;16.39
24201;BMP280;2801;50.972;7.856;2022-07-29T00:19:52;97568.59;;;16.40
24201;BMP280;2801;50.972;7.856;2022-07-29T00:22:20;97560.44;;;16.36
24201;BMP280;2801;50.972;7.856;2022-07-29T00:24:48;97557.25;;;16.31
24201;BMP280;2801;50.972;7.856;2022-07-29T00:27:17;97562.91;;;16.26
24201;BMP280;2801;50.972;7.856;2022-07-29T00:29:44;97560.06;;;16.19
24201;BMP280;2801;50.972;7.856;2022-07-29T00:32:11;97552.59;;;16.12
24201;BMP280;2801;50.972;7.856;2022-07-29T00:34:38;97552.25;;;16.14
24201;BMP280;2801;50.972;7.856;2022-07-29T00:37:24;97551.53;;;16.17
24201;BMP280;2801;50.972;7.856;2022-07-29T00:39:51;97549.59;;;16.17
24201;BMP280;2801;50.972;7.856;2022-07-29T00:42:18;97554.59;;;16.15
24201;BMP280;2801;50.972;7.856;2022-07-29T00:44:45;97552.25;;;16.14
24201;BMP280;2801;50.972;7.856;2022-07-29T00:47:12;97549.91;;;16.12
24201;BMP280;2801;50.972;7.856;2022-07-29T00:49:41;97552.31;;;16.17
24201;BMP280;2801;50.972;7.856;2022-07-29T00:52:10;97547.03;;;16.24
24201;BMP280;2801;50.972;7.856;2022-07-29T00:54:39;97548.31;;;16.30
24201;BMP280;2801;50.972;7.856;2022-07-29T00:57:11;97556.63;;;16.41
24201;BMP280;2801;50.972;7.856;2022-07-29T00:59:38;97549.03;;;16.46
24201;BMP280;2801;50.972;7.856;2022-07-29T01:02:06;97550.75;;;16.54
24201;BMP280;2801;50.972;7.856;2022-07-29T01:04:33;97534.56;;;16.58
24201;BMP280;2801;50.972;7.856;2022-07-29T01:07:04;97541.31;;;16.67
24201;BMP280;2801;50.972;7.856;2022-07-29T01:09:33;97527.44;;;16.69
24201;BMP280;2801;50.972;7.856;2022-07-29T01:12:33;97534.53;;;16.77
24201;BMP280;2801;50.972;7.856;2022-07-29T01:15:06;97526.44;;;16.80
24201;BMP280;2801;50.972;7.856;2022-07-29T01:26:45;97531.38;;;16.75
24201;BMP280;2801;50.972;7.856;2022-07-29T01:29:30;97530.66;;;16.78
24201;BMP280;2801;50.972;7.856;2022-07-29T01:32:14;97534.28;;;16.85
24201;BMP280;2801;50.972;7.856;2022-07-29T01:37:47;97523.94;;;16.91
24201;BMP280;2801;50.972;7.856;2022-07-29T01:43:10;97534.03;;;16.94
24201;BMP280;2801;50.972;7.856;2022-07-29T01:45:48;97537.09;;;16.92
24201;BMP280;2801;50.972;7.856;2022-07-29T01:48:41;97533.97;;;16.90
24201;BMP280;2801;50.972;7.856;2022-07-29T01:51:18;97523.94;;;16.91
24201;BMP280;2801;50.972;7.856;2022-07-29T01:53:52;97508.81;;;16.90
24201;BMP280;2801;50.972;7.856;2022-07-29T01:56:22;97505.75;;;16.91
24201;BMP280;2801;50.972;7.856;2022-07-29T01:58:53;97503.63;;;16.81
24201;BMP280;2801;50.972;7.856;2022-07-29T02:01:23;97504.44;;;16.82
24201;BMP280;2801;50.972;7.856;2022-07-29T02:03:53;97503.59;;;16.78
24201;BMP280;2801;50.972;7.856;2022-07-29T02:06:23;97509.50;;;16.83
24201;BMP280;2801;50.972;7.856;2022-07-29T02:08:52;97513.47;;;16.89
24201;BMP280;2801;50.972;7.856;2022-07-29T02:11:19;97494.56;;;16.93
24201;BMP280;2801;50.972;7.856;2022-07-29T02:13:49;97494.56;;;16.93
24201;BMP280;2801;50.972;7.856;2022-07-29T02:16:21;97489.94;;;16.93
24201;BMP280;2801;50.972;7.856;2022-07-29T02:18:52;97493.38;;;16.90
24201;BMP280;2801;50.972;7.856;2022-07-29T02:21:24;97491.34;;;16.84
24201;BMP280;2801;50.972;7.856;2022-07-29T02:23:54;97489.34;;;16.81
24201;BMP280;2801;50.972;7.856;2022-07-29T02:26:24;97479.66;;;16.80
24201;BMP280;2801;50.972;7.856;2022-07-29T02:28:56;97479.00;;;16.86
24201;BMP280;2801;50.972;7.856;2022-07-29T02:31:30;97478.69;;;16.91
24201;BMP280;2801;50.972;7.856;2022-07-29T02:34:02;97475.28;;;16.98
24201;BMP280;2801;50.972;7.856;2022-07-29T02:36:30;97476.13;;;17.02
24201;BMP280;2801;50.972;7.856;2022-07-29T02:39:00;97475.75;;;17.03
24201;BMP280;2801;50.972;7.856;2022-07-29T02:41:48;97476.94;;;17.06
24201;BMP280;2801;50.972;7.856;2022-07-29T02:44:19;97478.53;;;17.07
24201;BMP280;2801;50.972;7.856;2022-07-29T02:46:59;97477.03;;;17.09
24201;BMP280;2801;50.972;7.856;2022-07-29T02:49:37;97464.28;;;17.10
24201;BMP280;2801;50.972;7.856;2022-07-29T02:55:39;97469.78;;;17.17
24201;BMP280;2801;50.972;7.856;2022-07-29T02:58:06;97467.44;;;17.15
24201;BMP280;2801;50.972;7.856;2022-07-29T03:00:38;97460.06;;;17.12
24201;BMP280;2801;50.972;7.856;2022-07-29T03:03:12;97467.38;;;17.12
24201;BMP280;2801;50.972;7.856;2022-07-29T03:05:40;97461.16;;;17.11
24201;BMP280;2801;50.972;7.856;2022-07-29T03:08:11;97454.56;;;17.09
24201;BMP280;2801;50.972;7.856;2022-07-29T03:10:43;97454.19;;;17.10
24201;BMP280;2801;50.972;7.856;2022-07-29T03:13:11;97456.50;;;17.08
24201;BMP280;2801;50.972;7.856;2022-07-29T03:15:40;97444.78;;;17.01
24201;BMP280;2801;50.972;7.856;2022-07-29T03:18:09;97445.81;;;16.93
24201;BMP280;2801;50.972;7.856;2022-07-29T03:20:38;97442.97;;;16.82
24201;BMP280;2801;50.972;7.856;2022-07-29T03:23:05;97450.13;;;16.71
24201;BMP280;2801;50.972;7.856;2022-07-29T03:25:32;97446.28;;;16.50
24201;BMP280;2801;50.972;7.856;2022-07-29T03:27:59;97452.09;;;16.29
24201;BMP280;2801;50.972;7.856;2022-07-29T03:30:26;97450.69;;;16.16
24201;BMP280;2801;50.972;7.856;2022-07-29T03:32:54;97442.31;;;16.02
24201;BMP280;2801;50.972;7.856;2022-07-29T03:35:23;97442.47;;;15.90
24201;BMP280;2801;50.972;7.856;2022-07-29T03:37:51;97440.97;;;15.74
24201;BMP280;2801;50.972;7.856;2022-07-29T03:40:27;97436.72;;;15.54
24201;BMP280;2801;50.972;7.856;2022-07-29T03:42:58;97441.56;;;15.45
24201;BMP280;2801;50.972;7.856;2022-07-29T03:45:29;97443.22;;;15.34
24201;BMP280;2801;50.972;7.856;2022-07-29T03:48:08;97441.22;;;15.31
24201;BMP280;2801;50.972;7.856;2022-07-29T03:50:35;97435.75;;;15.27
24201;BMP280;2801;50.972;7.856;2022-07-29T03:53:03;97438.81;;;15.26
24201;BMP280;2801;50.972;7.856;2022-07-29T03:55:39;97427.91;;;15.22
24201;BMP280;2801;50.972;7.856;2022-07-29T03:58:08;97429.34;;;15.16
24201;BMP280;2801;50.972;7.856;2022-07-29T04:00:36;97428.72;;;15.07
24201;BMP280;2801;50.972;7.856;2022-07-29T04:03:04;97436.44;;;14.90
24201;BMP280;2801;50.972;7.856;2022-07-29T04:05:37;97435.56;;;14.86
24201;BMP280;2801;50.972;7.856;2022-07-29T04:08:04;97442.47;;;14.83
24201;BMP280;2801;50.972;7.856;2022-07-29T04:10:32;97441.25;;;14.81
24201;BMP280;2801;50.972;7.856;2022-07-29T04:13:01;97442.22;;;14.73
24201;BMP280;2801;50.972;7.856;2022-07-29T04:15:28;97435.34;;;14.75
24201;BMP280;2801;50.972;7.856;2022-07-29T04:17:58;97439.00;;;14.67
24201;BMP280;2801;50.972;7.856;2022-07-29T04:20:25;97449.00;;;14.66
24201;BMP280;2801;50.972;7.856;2022-07-29T04:22:52;97457.09;;;14.66
24201;BMP280;2801;50.972;7.856;2022-07-29T04:25:19;97461.28;;;14.64
24201;BMP280;2801;50.972;7.856;2022-07-29T04:27:45;97467.53;;;14.68
24201;BMP280;2801;50.972;7.856;2022-07-29T04:30:32;97471.81;;;14.69
24201;BMP280;2801;50.972;7.856;2022-07-29T04:33:05;97467.72;;;14.75
24201;BMP280;2801;50.972;7.856;2022-07-29T04:35:37;97471.44;;;14.86
24201;BMP280;2801;50.972;7.856;2022-07-29T04:38:16;97470.50;;;14.94
24201;BMP280;2801;50.972;7.856;2022-07-29T04:40:43;97481.25;;;15.10
24201;BMP280;2801;50.972;7.856;2022-07-29T04:43:10;97478.34;;;15.18
24201;BMP280;2801;50.972;7.856;2022-07-29T04:45:39;97479.81;;;15.31
24201;BMP280;2801;50.972;7.856;2022-07-29T04:48:06;97476.59;;;15.41
24201;BMP280;2801;50.972;7.856;2022-07-29T04:50:33;97465.94;;;15.48
24201;BMP280;2801;50.972;7.856;2022-07-29T04:53:00;97467.28;;;15.58
24201;BMP280;2801;50.972;7.856;2022-07-29T04:55:27;97472.50;;;15.66
24201;BMP280;2801;50.972;7.856;2022-07-29T04:57:54;97466.75;;;15.68
24201;BMP280;2801;50.972;7.856;2022-07-29T05:00:21;97460.03;;;15.81
24201;BMP280;2801;50.972;7.856;2022-07-29T05:02:57;97487.28;;;16.10
24201;BMP280;2801;50.972;7.856;2022-07-29T05:05:24;97476.72;;;16.24
24201;BMP280;2801;50.972;7.856;2022-07-29T05:07:51;97483.94;;;16.39
24201;BMP280;2801;50.972;7.856;2022-07-29T05:10:18;97477.31;;;16.56
24201;BMP280;2801;50.972;7.856;2022-07-29T05:12:45;97474.50;;;16.71
24201;BMP280;2801;50.972;7.856;2022-07-29T05:15:12;97469.09;;;16.97
24201;BMP280;2801;50.972;7.856;2022-07-29T05:17:39;97482.91;;;17.15
24201;BMP280;2801;50.972;7.856;2022-07-29T05:20:07;97475.75;;;17.29
24201;BMP280;2801;50.972;7.856;2022-07-29T05:22:34;97475.03;;;17.32
24201;BMP280;2801;50.972;7.856;2022-07-29T05:25:01;97483.75;;;17.45
24201;BMP280;2801;50.972;7.856;2022-07-29T05:27:36;97471.91;;;17.56
24201;BMP280;2801;50.972;7.856;2022-07-29T05:30:03;97473.94;;;17.63
24201;BMP280;2801;50.972;7.856;2022-07-29T05:32:30;97472.47;;;17.69
24201;BMP280;2801;50.972;7.856;2022-07-29T05:34:58;97480.31;;;17.77
24201;BMP280;2801;50.972;7.856;2022-07-29T05:37:25;97476.50;;;17.82
24201;BMP280;2801;50.972;7.856;2022-07-29T05:39:52;97475.44;;;17.90
24201;BMP280;2801;50.972;7.856;2022-07-29T05:42:25;97483.66;;;17.97
24201;BMP280;2801;50.972;7.856;2022-07-29T05:44:52;97480.25;;;18.03
24201;BMP280;2801;50.972;7.856;2022-07-29T05:47:23;97486.59;;;18.18
24201;BMP280;2801;50.972;7.856;2022-07-29T05:49:50;97479.69;;;18.24
24201;BMP280;2801;50.972;7.856;2022-07-29T05:52:18;97489.41;;;18.62
24201;BMP280;2801;50.972;7.856;2022-07-29T05:54:45;97489.16;;;18.77
24201;BMP280;2801;50.972;7.856;2022-07-29T05:57:20;97493.13;;;18.90
24201;BMP280;2801;50.972;7.856;2022-07-29T05:59:49;97495.59;;;19.06
24201;BMP280;2801;50.972;7.856;2022-07-29T06:02:16;97488.81;;;19.29
24201;BMP280;2801;50.972;7.856;2022-07-29T06:04:44;97485.41;;;19.43
24201;BMP280;2801;50.972;7.856;2022-07-29T06:07:11;97494.41;;;19.57
24201;BMP280;2801;50.972;7.856;2022-07-29T06:09:38;97495.63;;;19.63
24201;BMP280;2801;50.972;7.856;2022-07-29T06:12:05;97492.56;;;19.72
24201;BMP280;2801;50.972;7.856;2022-07-29T06:14:31;97491.44;;;19.80
24201;BMP280;2801;50.972;7.856;2022-07-29T06:16:59;97489.88;;;19.82
24201;BMP280;2801;50.972;7.856;2022-07-29T06:19:26;97493.41;;;19.86
24201;BMP280;2801;50.972;7.856;2022-07-29T06:21:53;97500.44;;;19.94
24201;BMP280;2801;50.972;7.856;2022-07-29T06:24:19;97492.66;;;19.89
24201;BMP280;2801;50.972;7.856;2022-07-29T06:26:46;97496.16;;;19.97
24201;BMP280;2801;50.972;7.856;2022-07-29T06:29:13;97498.91;;;20.04
24201;BMP280;2801;50.972;7.856;2022-07-29T06:31:40;97503.97;;;20.09
24201;BMP280;2801;50.972;7.856;2022-07-29T06:34:07;97508.72;;;20.15
24201;BMP280;2801;50.972;7.856;2022-07-29T06:36:36;97513.41;;;20.25
24201;BMP280;2801;50.972;7.856;2022-07-29T06:39:06;97513.44;;;20.36
24201;BMP280;2801;50.972;7.856;2022-07-29T06:41:34;97507.25;;;20.42
24201;BMP280;2801;50.972;7.856;2022-07-29T06:44:00;97508.41;;;20.48
24201;BMP280;2801;50.972;7.856;2022-07-29T06:46:27;97509.59;;;20.58
24201;BMP280;2801;50.972;7.856;2022-07-29T06:48:55;97516.22;;;20.67
24201;BMP280;2801;50.972;7.856;2022-07-29T06:51:22;97517.81;;;20.75
24201;BMP280;2801;50.972;7.856;2022-07-29T06:53:53;97511.19;;;20.90
24201;BMP280;2801;50.972;7.856;2022-07-29T06:56:32;97513.16;;;21.21
24201;BMP280;2801;50.972;7.856;2022-07-29T06:59:09;97516.63;;;21.50
24201;BMP280;2801;50.972;7.856;2022-07-29T07:01:41;97522.06;;;21.75
24201;BMP280;2801;50.972;7.856;2022-07-29T07:04:10;97514.22;;;21.91
24201;BMP280;2801;50.972;7.856;2022-07-29T07:06:37;97522.00;;;21.96
24201;BMP280;2801;50.972;7.856;2022-07-29T07:09:05;97518.78;;;22.15
24201;BMP280;2801;50.972;7.856;2022-07-29T07:11:32;97518.63;;;22.46
24201;BMP280;2801;50.972;7.856;2022-07-29T07:13:59;97517.75;;;22.70
24201;BMP280;2801;50.972;7.856;2022-07-29T07:16:30;97507.06;;;22.93
24201;BMP280;2801;50.972;7.856;2022-07-29T07:18:57;97511.56;;;23.21
24201;BMP280;2801;50.972;7.856;2022-07-29T07:21:24;97509.81;;;23.37
24201;BMP280;2801;50.972;7.856;2022-07-29T07:23:51;97512.66;;;23.27
24201;BMP280;2801;50.972;7.856;2022-07-29T07:26:22;97515.47;;;23.13
24201;BMP280;2801;50.972;7.856;2022-07-29T07:28:48;97518.59;;;23.15
24201;BMP280;2801;50.972;7.856;2022-07-29T07:31:15;97514.38;;;23.07
24201;BMP280;2801;50.972;7.856;2022-07-29T07:33:42;97519.75;;;23.17
24201;BMP280;2801;50.972;7.856;2022-07-29T07:36:09;97516.56;;;23.26
24201;BMP280;2801;50.972;7.856;2022-07-29T07:38:36;97507.13;;;23.34
24201;BMP280;2801;50.972;7.856;2022-07-29T07:41:03;97507.41;;;23.46
24201;BMP280;2801;50.972;7.856;2022-07-29T07:43:30;97503.56;;;23.77
24201;BMP280;2801;50.972;7.856;2022-07-29T07:45:57;97496.44;;;24.20
24201;BMP280;2801;50.972;7.856;2022-07-29T07:48:24;97503.34;;;24.58
24201;BMP280;2801;50.972;7.856;2022-07-29T07:50:51;97503.78;;;25.07
24201;BMP280;2801;50.972;7.856;2022-07-29T07:53:18;97495.53;;;25.33
24201;BMP280;2801;50.972;7.856;2022-07-29T07:55:45;97493.19;;;25.55
24201;BMP280;2801;50.972;7.856;2022-07-29T07:58:32;97497.59;;;25.72
24201;BMP280;2801;50.972;7.856;2022-07-29T08:00:59;97499.19;;;25.69
24201;BMP280;2801;50.972;7.856;2022-07-29T08:03:26;97501.50;;;25.71
24201;BMP280;2801;50.972;7.856;2022-07-29T08:05:53;97499.19;;;25.69
24201;BMP280;2801;50.972;7.856;2022-07-29T08:08:20;97499.69;;;25.64
24201;BMP280;2801;50.972;7.856;2022-07-29T08:10:47;97498.63;;;25.58
24201;BMP280;2801;50.972;7.856;2022-07-29T08:13:25;97494.41;;;25.54
24201;BMP280;2801;50.972;7.856;2022-07-29T08:15:54;97497.69;;;25.45
24201;BMP280;2801;50.972;7.856;2022-07-29T08:18:29;97495.59;;;25.30
24201;BMP280;2801;50.972;7.856;2022-07-29T08:20:57;97504.81;;;25.16
24201;BMP280;2801;50.972;7.856;2022-07-29T08:23:25;97495.44;;;25.14
24201;BMP280;2801;50.972;7.856;2022-07-29T08:26:13;97505.66;;;25.13
24201;BMP280;2801;50.972;7.856;2022-07-29T08:28:43;97504.22;;;25.28
24201;BMP280;2801;50.972;7.856;2022-07-29T08:31:13;97492.38;;;25.35
24201;BMP280;2801;50.972;7.856;2022-07-29T08:33:41;97499.84;;;25.34
24201;BMP280;2801;50.972;7.856;2022-07-29T08:36:08;97499.53;;;25.29
24201;BMP280;2801;50.972;7.856;2022-07-29T08:38:36;97498.50;;;25.19
24201;BMP280;2801;50.972;7.856;2022-07-29T08:41:03;97498.06;;;25.21
24201;BMP280;2801;50.972;7.856;2022-07-29T08:43:30;97497.09;;;25.34
24201;BMP280;2801;50.972;7.856;2022-07-29T08:45:56;97498.38;;;25.49
24201;BMP280;2801;50.972;7.856;2022-07-29T08:48:24;97503.84;;;25.53
24201;BMP280;2801;50.972;7.856;2022-07-29T08:50:57;97501.97;;;25.46
24201;BMP280;2801;50.972;7.856;2022-07-29T08:53:26;97504.28;;;25.48
24201;BMP280;2801;50.972;7.856;2022-07-29T08:55:55;97496.13;;;25.44
24201;BMP280;2801;50.972;7.856;2022-07-29T08:58:24;97488.13;;;25.30
24201;BMP280;2801;50.972;7.856;2022-07-29T09:00:55;97494.75;;;25.33
24201;BMP280;2801;50.972;7.856;2022-07-29T09:03:29;97491.84;;;25.43
24201;BMP280;2801;50.972;7.856;2022-07-29T09:05:59;97492.97;;;25.46
24201;BMP280;2801;50.972;7.856;2022-07-29T09:08:26;97488.66;;;25.45
24201;BMP280;2801;50.972;7.856;2022-07-29T09:10:54;97482.81;;;25.43
24201;BMP280;2801;50.972;7.856;2022-07-29T09:13:22;97474.47;;;25.50
24201;BMP280;2801;50.972;7.856;2022-07-29T09:15:49;97481.59;;;25.67
24201;BMP280;2801;50.972;7.856;2022-07-29T09:18:39;97487.03;;;25.70
24201;BMP280;2801;50.972;7.856;2022-07-29T09:21:09;97489.28;;;25.75
24201;BMP280;2801;50.972;7.856;2022-07-29T09:24:07;97476.75;;;25.74
24201;BMP280;2801;50.972;7.856;2022-07-29T09:26:40;97479.50;;;25.74
24201;BMP280;2801;50.972;7.856;2022-07-29T09:29:11;97488.50;;;25.75
24201;BMP280;2801;50.972;7.856;2022-07-29T09:31:42;97485.69;;;25.78
24201;BMP280;2801;50.972;7.856;2022-07-29T09:34:11;97479.00;;;25.79
24201;BMP280;2801;50.972;7.856;2022-07-29T09:36:41;97478.44;;;25.88
24201;BMP280;2801;50.972;7.856;2022-07-29T09:39:08;97478.66;;;25.97
24201;BMP280;2801;50.972;7.856;2022-07-29T09:42:08;97480.50;;;26.03
24201;BMP280;2801;50.972;7.856;2022-07-29T09:44:49;97472.97;;;26.07
24201;BMP280;2801;50.972;7.856;2022-07-29T09:47:18;97477.81;;;26.19
24201;BMP280;2801;50.972;7.856;2022-07-29T09:49:57;97465.81;;;26.29
24201;BMP280;2801;50.972;7.856;2022-07-29T09:52:29;97473.31;;;26.45
24201;BMP280;2801;50.972;7.856;2022-07-29T09:55:09;97465.63;;;26.56
24201;BMP280;2801;50.972;7.856;2022-07-29T09:57:45;97464.97;;;26.68
24201;BMP280;2801;50.972;7.856;2022-07-29T10:00:19;97469.09;;;26.76
24201;BMP280;2801;50.972;7.856;2022-07-29T10:02:47;97469.19;;;26.88
24201;BMP280;2801;50.972;7.856;2022-07-29T10:05:23;97466.44;;;27.04
24201;BMP280;2801;50.972;7.856;2022-07-29T10:07:56;97468.25;;;27.27
24201;BMP280;2801;50.972;7.856;2022-07-29T10:10:31;97462.34;;;27.57
24201;BMP280;2801;50.972;7.856;2022-07-29T10:13:03;97453.69;;;27.71
24201;BMP280;2801;50.972;7.856;2022-07-29T10:15:41;97460.97;;;27.94
24201;BMP280;2801;50.972;7.856;2022-07-29T10:18:13;97460.47;;;28.24
24201;BMP280;2801;50.972;7.856;2022-07-29T10:20:40;97453.81;;;28.50
24201;BMP280;2801;50.972;7.856;2022-07-29T10:23:09;97450.38;;;28.71
24201;BMP280;2801;50.972;7.856;2022-07-29T10:25:36;97446.41;;;28.84
24201;BMP280;2801;50.972;7.856;2022-07-29T10:28:05;97447.41;;;29.03
24201;BMP280;2801;50.972;7.856;2022-07-29T10:30:33;97447.16;;;29.10
24201;BMP280;2801;50.972;7.856;2022-07-29T10:33:41;97437.13;;;28.91
24201;BMP280;2801;50.972;7.856;2022-07-29T10:36:41;97445.28;;;28.82
24201;BMP280;2801;50.972;7.856;2022-07-29T10:40:10;97438.25;;;28.68
24201;BMP280;2801;50.972;7.856;2022-07-29T10:42:55;97433.38;;;28.72
24201;BMP280;2801;50.972;7.856;2022-07-29T10:45:26;97436.34;;;28.90
24201;BMP280;2801;50.972;7.856;2022-07-29T10:48:06;97423.63;;;29.18
24201;BMP280;2801;50.972;7.856;2022-07-29T10:51:12;97428.53;;;29.35
24201;BMP280;2801;50.972;7.856;2022-07-29T10:53:51;97432.38;;;29.38
24201;BMP280;2801;50.972;7.856;2022-07-29T10:56:27;97431.06;;;29.42
24201;BMP280;2801;50.972;7.856;2022-07-29T11:01:50;97432.53;;;29.56
24201;BMP280;2801;50.972;7.856;2022-07-29T11:07:14;97426.69;;;29.54
24201;BMP280;2801;50.972;7.856;2022-07-29T11:09:43;97430.78;;;29.62
24201;BMP280;2801;50.972;7.856;2022-07-29T11:15:14;97433.66;;;29.24
24201;BMP280;2801;50.972;7.856;2022-07-29T11:18:04;97442.28;;;29.14
24201;BMP280;2801;50.972;7.856;2022-07-29T11:20:48;97420.59;;;29.03
24201;BMP280;2801;50.972;7.856;2022-07-29T11:23:32;97427.28;;;29.15
24201;BMP280;2801;50.972;7.856;2022-07-29T11:26:18;97426.50;;;29.14
24201;BMP280;2801;50.972;7.856;2022-07-29T11:29:21;97421.78;;;29.02
24201;BMP280;2801;50.972;7.856;2022-07-29T11:31:53;97418.13;;;28.93
24201;BMP280;2801;50.972;7.856;2022-07-29T11:34:32;97427.94;;;29.06
24201;BMP280;2801;50.972;7.856;2022-07-29T11:39:38;97418.41;;;29.20
24201;BMP280;2801;50.972;7.856;2022-07-29T11:45:44;97417.94;;;29.34
24201;BMP280;2801;50.972;7.856;2022-07-29T11:48:17;97415.31;;;29.30
24201;BMP280;2801;50.972;7.856;2022-07-29T11:51:10;97407.22;;;29.36
24201;BMP280;2801;50.972;7.856;2022-07-29T11:53:39;97410.81;;;29.45
24201;BMP280;2801;50.972;7.856;2022-07-29T11:56:08;97410.66;;;29.61
24201;BMP280;2801;50.972;7.856;2022-07-29T11:58:36;97399.75;;;29.79
24201;BMP280;2801;50.972;7.856;2022-07-29T12:01:04;97408.91;;;29.98
24201;BMP280;2801;50.972;7.856;2022-07-29T12:03:31;97399.84;;;30.19
24201;BMP280;2801;50.972;7.856;2022-07-29T12:06:13;97397.56;;;30.26
24201;BMP280;2801;50.972;7.856;2022-07-29T12:08:43;97402.00;;;30.24
24201;BMP280;2801;50.972;7.856;2022-07-29T12:11:19;97399.41;;;30.20
24201;BMP280;2801;50.972;7.856;2022-07-29T12:13:50;97395.25;;;30.25
24201;BMP280;2801;50.972;7.856;2022-07-29T12:16:18;97390.19;;;30.23
24201;BMP280;2801;50.972;7.856;2022-07-29T12:19:03;97386.16;;;30.15
24201;BMP280;2801;50.972;7.856;2022-07-29T12:21:53;97386.97;;;30.03
24201;BMP280;2801;50.972;7.856;2022-07-29T12:24:43;97380.03;;;29.99
24201;BMP280;2801;50.972;7.856;2022-07-29T12:27:16;97386.38;;;30.08
24201;BMP280;2801;50.972;7.856;2022-07-29T12:29:44;97392.09;;;30.14
24201;BMP280;2801;50.972;7.856;2022-07-29T12:32:14;97391.34;;;30.13
24201;BMP280;2801;50.972;7.856;2022-07-29T12:34:45;97390.22;;;30.32
24201;BMP280;2801;50.972;7.856;2022-07-29T12:37:12;97387.81;;;30.43
24201;BMP280;2801;50.972;7.856;2022-07-29T12:39:40;97388.44;;;30.47
24201;BMP280;2801;50.972;7.856;2022-07-29T12:42:14;97389.31;;;30.35
24201;BMP280;2801;50.972;7.856;2022-07-29T12:44:49;97395.03;;;30.41
24201;BMP280;2801;50.972;7.856;2022-07-29T12:47:18;97385.53;;;30.51
24201;BMP280;2801;50.972;7.856;2022-07-29T12:49:46;97380.00;;;30.51
24201;BMP280;2801;50.972;7.856;2022-07-29T12:52:32;97382.47;;;30.49
24201;BMP280;2801;50.972;7.856;2022-07-29T12:55:01;97379.41;;;30.56
24201;BMP280;2801;50.972;7.856;2022-07-29T12:57:28;97376.88;;;30.40
24201;BMP280;2801;50.972;7.856;2022-07-29T13:00:06;97375.91;;;30.25
24201;BMP280;2801;50.972;7.856;2022-07-29T13:02:38;97369.63;;;30.03
24201;BMP280;2801;50.972;7.856;2022-07-29T13:05:08;97364.38;;;29.96
24201;BMP280;2801;50.972;7.856;2022-07-29T13:07:37;97375.22;;;30.12
24201;BMP280;2801;50.972;7.856;2022-07-29T13:10:21;97369.34;;;30.31
24201;BMP280;2801;50.972;7.856;2022-07-29T13:13:12;97368.81;;;30.54
24201;BMP280;2801;50.972;7.856;2022-07-29T13:15:44;97358.66;;;30.60
24201;BMP280;2801;50.972;7.856;2022-07-29T13:18:34;97367.28;;;30.62
24201;BMP280;2801;50.972;7.856;2022-07-29T13:21:15;97366.06;;;30.63
24201;BMP280;2801;50.972;7.856;2022-07-29T13:23:44;97352.50;;;30.56
24201;BMP280;2801;50.972;7.856;2022-07-29T13:26:11;97358.66;;;30.51
24201;BMP280;2801;50.972;7.856;2022-07-29T13:28:38;97352.22;;;30.63
24201;BMP280;2801;50.972;7.856;2022-07-29T13:31:05;97355.69;;;30.85
24201;BMP280;2801;50.972;7.856;2022-07-29T13:33:32;97361.69;;;31.02
24201;BMP280;2801;50.972;7.856;2022-07-29T13:35:59;97356.31;;;31.08
24201;BMP280;2801;50.972;7.856;2022-07-29T13:38:26;97351.22;;;31.15
24201;BMP280;2801;50.972;7.856;2022-07-29T13:40:57;97357.88;;;31.36
24201;BMP280;2801;50.972;7.856;2022-07-29T13:43:24;97357.22;;;31.59
24201;BMP280;2801;50.972;7.856;2022-07-29T13:45:51;97353.53;;;31.80
24201;BMP280;2801;50.972;7.856;2022-07-29T13:48:19;97348.56;;;32.02
24201;BMP280;2801;50.972;7.856;2022-07-29T13:50:45;97342.63;;;32.18
24201;BMP280;2801;50.972;7.856;2022-07-29T13:53:13;97345.25;;;32.30
24201;BMP280;2801;50.972;7.856;2022-07-29T13:55:43;97326.88;;;32.33
24201;BMP280;2801;50.972;7.856;2022-07-29T13:58:10;97344.47;;;32.21
24201;BMP280;2801;50.972;7.856;2022-07-29T14:00:37;97345.50;;;31.91
24201;BMP280;2801;50.972;7.856;2022-07-29T14:03:04;97337.97;;;31.82
24201;BMP280;2801;50.972;7.856;2022-07-29T14:05:33;97352.75;;;31.61
24201;BMP280;2801;50.972;7.856;2022-07-29T14:07:59;97353.88;;;31.37
24201;BMP280;2801;50.972;7.856;2022-07-29T14:10:27;97355.53;;;31.16
24201;BMP280;2801;50.972;7.856;2022-07-29T14:12:53;97352.59;;;31.02
24201;BMP280;2801;50.972;7.856;2022-07-29T14:15:20;97363.53;;;30.87
24201;BMP280;2801;50.972;7.856;2022-07-29T14:17:47;97363.31;;;30.72
24201;BMP280;2801;50.972;7.856;2022-07-29T14:20:14;97369.19;;;30.35
24201;BMP280;2801;50.972;7.856;2022-07-29T14:22:42;97375.31;;;30.08
24201;BMP280;2801;50.972;7.856;2022-07-29T14:25:11;97376.63;;;29.64
24201;BMP280;2801;50.972;7.856;2022-07-29T14:27:42;97364.13;;;29.38
24201;BMP280;2801;50.972;7.856;2022-07-29T14:30:11;97377.75;;;29.33
24201;BMP280;2801;50.972;7.856;2022-07-29T14:32:38;97372.25;;;29.20
24201;BMP280;2801;50.972;7.856;2022-07-29T14:35:06;97382.53;;;29.20
24201;BMP280;2801;50.972;7.856;2022-07-29T14:37:33;97376.88;;;29.23
24201;BMP280;2801;50.972;7.856;2022-07-29T14:40:07;97389.38;;;29.28
24201;BMP280;2801;50.972;7.856;2022-07-29T14:42:34;97389.59;;;29.21
24201;BMP280;2801;50.972;7.856;2022-07-29T14:45:05;97394.47;;;29.17
24201;BMP280;2801;50.972;7.856;2022-07-29T14:47:33;97401.13;;;29.07
24201;BMP280;2801;50.972;7.856;2022-07-29T14:50:01;97395.41;;;29.01
24201;BMP280;2801;50.972;7.856;2022-07-29T14:52:28;97403.13;;;28.94
24201;BMP280;2801;50.972;7.856;2022-07-29T14:54:55;97396.06;;;28.80
24201;BMP280;2801;50.972;7.856;2022-07-29T14:57:22;97385.94;;;28.65
24201;BMP280;2801;50.972;7.856;2022-07-29T14:59:49;97404.13;;;28.75
24201;BMP280;2801;50.972;7.856;2022-07-29T15:02:17;97391.78;;;28.67
24201;BMP280;2801;50.972;7.856;2022-07-29T15:04:44;97400.84;;;28.67
24201;BMP280;2801;50.972;7.856;2022-07-29T15:07:12;97396.44;;;28.57
24201;BMP280;2801;50.972;7.856;2022-07-29T15:09:39;97390.38;;;28.50
24201;BMP280;2801;50.972;7.856;2022-07-29T15:12:16;97404.72;;;28.57
24201;BMP280;2801;50.972;7.856;2022-07-29T15:14:43;97394.78;;;28.60
24201;BMP280;2801;50.972;7.856;2022-07-29T15:17:10;97389.72;;;28.58
24201;BMP280;2801;50.972;7.856;2022-07-29T15:19:37;97393.34;;;28.55